createdAt,value
2022-08-17T00:00:05.769Z,21.60
2022-08-17T00:02:34.385Z,21.60
2022-08-17T00:05:09.739Z,21.60
2022-08-17T00:07:36.578Z,21.50
2022-08-17T00:10:03.717Z,21.40
2022-08-17T00:12:43.192Z,21.30
2022-08-17T00:15:19.322Z,21.30
2022-08-17T00:17:50.562Z,21.30
2022-08-17T00:20:18.566Z,21.30
2022-08-17T00:22:50.527Z,21.30
2022-08-17T00:25:20.125Z,21.40
2022-08-17T00:27:47.311Z,21.40
2022-08-17T00:30:14.878Z,21.40
2022-08-17T00:33:15.709Z,21.40
2022-08-17T00:35:34.625Z,21.30
2022-08-17T00:38:01.695Z,21.30
2022-08-17T00:40:40.059Z,21.20
2022-08-17T00:43:37.284Z,21.30
2022-08-17T00:46:15.578Z,21.20
2022-08-17T00:48:44.150Z,21.20
2022-08-17T00:51:29.339Z,21.20
2022-08-17T00:54:21.330Z,21.20
2022-08-17T00:56:52.777Z,21.10
2022-08-17T00:59:22.011Z,21.10
2022-08-17T01:01:50.914Z,21.10
2022-08-17T01:04:21.204Z,21.00
2022-08-17T01:06:49.743Z,21.10
2022-08-17T01:09:18.295Z,21.00
2022-08-17T01:11:46.432Z,21.00
2022-08-17T01:14:13.775Z,21.00
2022-08-17T01:16:40.757Z,21.00
2022-08-17T01:19:16.462Z,21.00
2022-08-17T01:21:50.109Z,21.00
2022-08-17T01:24:17.777Z,21.10
2022-08-17T01:26:45.528Z,21.10
2022-08-17T01:29:13.356Z,21.10
2022-08-17T01:31:46.802Z,21.10
2022-08-17T01:34:16.559Z,21.10
2022-08-17T01:36:46.270Z,21.00
2022-08-17T01:39:26.593Z,21.00
2022-08-17T01:41:58.622Z,20.90
2022-08-17T01:44:27.818Z,20.80
2022-08-17T01:46:54.862Z,20.70
2022-08-17T01:49:21.805Z,20.70
2022-08-17T01:51:49.019Z,20.70
2022-08-17T01:54:18.774Z,20.60
2022-08-17T01:56:48.337Z,20.70
2022-08-17T01:59:16.583Z,20.50
2022-08-17T02:01:43.934Z,20.00
2022-08-17T02:04:12.087Z,19.90
2022-08-17T02:06:52.501Z,20.00
2022-08-17T02:09:28.877Z,20.10
2022-08-17T02:11:59.105Z,20.20
2022-08-17T02:14:26.789Z,20.20
2022-08-17T02:16:54.157Z,20.30
2022-08-17T02:19:21.993Z,20.40
2022-08-17T02:21:52.070Z,20.50
2022-08-17T02:24:58.390Z,20.60
2022-08-17T02:27:19.735Z,20.60
2022-08-17T02:29:46.687Z,20.70
2022-08-17T02:32:28.216Z,20.80
2022-08-17T02:34:57.002Z,20.80
2022-08-17T02:37:24.539Z,20.70
2022-08-17T02:39:51.681Z,20.70
2022-08-17T02:42:18.655Z,20.70
2022-08-17T02:44:45.576Z,20.70
2022-08-17T02:47:13.183Z,20.60
2022-08-17T02:49:40.081Z,20.60
2022-08-17T02:52:08.195Z,20.50
2022-08-17T02:54:39.931Z,20.50
2022-08-17T02:57:11.951Z,20.60
2022-08-17T02:59:40.094Z,20.70
2022-08-17T03:02:08.336Z,20.70
2022-08-17T03:04:35.615Z,20.80
2022-08-17T03:07:03.278Z,20.90
2022-08-17T03:09:30.230Z,20.90
2022-08-17T03:12:14.291Z,20.90
2022-08-17T03:14:42.777Z,20.80
2022-08-17T03:17:16.948Z,20.70
2022-08-17T03:19:44.662Z,20.70
2022-08-17T03:22:35.929Z,20.60
2022-08-17T03:24:58.896Z,20.50
2022-08-17T03:27:26.299Z,20.50
2022-08-17T03:29:54.293Z,20.50
2022-08-17T03:32:21.213Z,20.50
2022-08-17T03:34:48.297Z,20.50
2022-08-17T03:37:16.488Z,20.50
2022-08-17T03:39:43.467Z,20.30
2022-08-17T03:42:32.540Z,20.30
2022-08-17T03:45:00.997Z,20.30
2022-08-17T03:47:47.369Z,20.20
2022-08-17T03:50:39.007Z,20.20
2022-08-17T03:53:31.979Z,20.30
2022-08-17T03:56:21.983Z,20.40
2022-08-17T03:58:49.227Z,20.30
2022-08-17T04:01:17.980Z,20.30
2022-08-17T04:03:44.965Z,20.40
2022-08-17T04:06:11.828Z,20.30
2022-08-17T04:08:38.784Z,20.20
2022-08-17T04:11:05.905Z,20.30
2022-08-17T04:13:32.775Z,20.30
2022-08-17T04:16:00.006Z,20.40
2022-08-17T04:18:26.907Z,20.30
2022-08-17T04:20:54.256Z,20.40
2022-08-17T04:23:21.252Z,20.40
2022-08-17T04:25:50.258Z,20.40
2022-08-17T04:28:18.967Z,20.30
2022-08-17T04:30:47.493Z,20.10
2022-08-17T04:33:20.128Z,20.10
2022-08-17T04:35:50.682Z,20.10
2022-08-17T04:38:24.267Z,20.10
2022-08-17T04:41:10.660Z,20.00
2022-08-17T04:43:39.186Z,20.00
2022-08-17T04:46:09.157Z,20.00
2022-08-17T04:48:39.814Z,20.10
2022-08-17T04:51:11.065Z,20.10
2022-08-17T04:53:43.242Z,20.10
2022-08-17T04:56:17.017Z,20.10
2022-08-17T04:58:48.155Z,20.10
2022-08-17T05:01:23.332Z,20.10
2022-08-17T05:03:53.711Z,20.20
2022-08-17T05:06:20.961Z,20.30
2022-08-17T05:08:47.898Z,20.30
2022-08-17T05:11:15.217Z,20.30
2022-08-17T05:13:42.291Z,20.40
2022-08-17T05:16:09.282Z,20.30
2022-08-17T05:18:37.350Z,20.30
2022-08-17T05:21:05.150Z,20.30
2022-08-17T05:23:43.000Z,20.30
2022-08-17T05:26:21.978Z,20.30
2022-08-17T05:28:59.700Z,20.20
2022-08-17T05:31:30.644Z,20.20
2022-08-17T05:33:58.739Z,20.10
2022-08-17T05:36:43.580Z,20.10
2022-08-17T05:39:16.479Z,20.00
2022-08-17T05:41:47.986Z,20.00
2022-08-17T05:44:15.688Z,19.90
2022-08-17T05:46:48.247Z,19.80
2022-08-17T05:49:18.235Z,19.50
2022-08-17T05:52:21.791Z,19.20
2022-08-17T05:55:03.261Z,19.20
2022-08-17T05:57:56.109Z,19.30
2022-08-17T06:00:30.360Z,19.40
2022-08-17T06:03:39.585Z,19.30
2022-08-17T06:06:35.644Z,19.30
2022-08-17T06:09:05.187Z,19.30
2022-08-17T06:11:42.744Z,19.40
2022-08-17T06:14:34.555Z,19.30
2022-08-17T06:17:06.308Z,19.20
2022-08-17T06:19:42.229Z,19.30
2022-08-17T06:22:13.219Z,19.30
2022-08-17T06:24:45.927Z,19.30
2022-08-17T06:27:38.899Z,19.40
2022-08-17T06:30:20.322Z,19.40
2022-08-17T06:32:50.018Z,19.50
2022-08-17T06:35:38.773Z,19.60
2022-08-17T06:38:17.328Z,19.60
2022-08-17T06:41:18.390Z,19.60
2022-08-17T06:43:48.174Z,19.60
2022-08-17T06:46:24.148Z,19.60
2022-08-17T06:49:07.496Z,19.80
2022-08-17T06:51:46.294Z,20.00
2022-08-17T06:54:25.845Z,20.20
2022-08-17T06:57:05.281Z,20.40
2022-08-17T06:59:56.742Z,20.50
2022-08-17T07:02:52.631Z,20.60
2022-08-17T07:05:34.005Z,20.90
2022-08-17T07:08:35.557Z,21.10
2022-08-17T07:11:08.777Z,21.60
2022-08-17T07:13:51.549Z,21.90
2022-08-17T07:16:47.106Z,22.00
2022-08-17T07:19:22.757Z,22.20
2022-08-17T07:22:18.091Z,22.40
2022-08-17T07:25:00.559Z,22.80
2022-08-17T07:27:42.957Z,23.10
2022-08-17T07:30:30.378Z,23.20
2022-08-17T07:33:20.254Z,23.10
2022-08-17T07:35:49.897Z,22.90
2022-08-17T07:38:35.579Z,22.90
2022-08-17T07:41:06.800Z,22.80
2022-08-17T07:43:39.676Z,22.80
2022-08-17T07:46:45.516Z,22.90
2022-08-17T07:49:15.012Z,23.00
2022-08-17T07:51:45.704Z,22.80
2022-08-17T07:54:15.708Z,22.70
2022-08-17T07:57:00.744Z,22.80
2022-08-17T07:59:36.099Z,23.00
2022-08-17T08:02:31.840Z,23.00
2022-08-17T08:05:12.974Z,23.70
2022-08-17T08:08:11.547Z,23.90
2022-08-17T08:10:45.503Z,24.20
2022-08-17T08:13:23.248Z,25.50
2022-08-17T08:15:56.252Z,26.70
2022-08-17T08:18:55.741Z,27.50
2022-08-17T08:22:18.203Z,28.10
2022-08-17T08:25:18.596Z,28.30
2022-08-17T08:28:12.817Z,28.60
2022-08-17T08:30:47.480Z,28.60
2022-08-17T08:33:43.659Z,28.40
2022-08-17T08:37:12.478Z,28.50
2022-08-17T08:40:04.483Z,29.20
2022-08-17T08:42:52.377Z,30.60
2022-08-17T08:45:28.524Z,31.20
2022-08-17T08:48:53.639Z,30.50
2022-08-17T08:51:37.532Z,29.90
2022-08-17T08:54:26.571Z,27.70
2022-08-17T09:00:05.561Z,27.10
2022-08-17T09:03:13.305Z,26.60
2022-08-17T09:05:40.148Z,26.70
2022-08-17T09:08:31.865Z,26.70
2022-08-17T09:10:58.684Z,26.70
2022-08-17T09:13:34.125Z,27.60
2022-08-17T09:16:08.540Z,28.50
2022-08-17T09:18:59.924Z,28.50
2022-08-17T09:21:53.579Z,28.70
2022-08-17T09:24:33.389Z,28.90
2022-08-17T09:27:11.474Z,28.90
2022-08-17T09:29:43.635Z,29.00
2022-08-17T09:32:36.583Z,28.20
2022-08-17T09:35:32.934Z,27.50
2022-08-17T09:38:22.729Z,26.30
2022-08-17T09:40:55.528Z,26.00
2022-08-17T09:43:38.940Z,26.20
2022-08-17T09:46:38.818Z,25.60
2022-08-17T09:49:23.166Z,25.90
2022-08-17T09:52:03.798Z,25.40
2022-08-17T09:54:39.221Z,25.00
2022-08-17T09:57:29.692Z,24.80
2022-08-17T10:00:23.773Z,25.10
2022-08-17T10:03:26.102Z,25.00
2022-08-17T10:06:13.358Z,24.90
2022-08-17T10:08:51.955Z,25.40
2022-08-17T10:12:03.728Z,26.20
2022-08-17T10:14:58.057Z,27.30
2022-08-17T10:17:46.065Z,29.60
2022-08-17T10:21:14.505Z,30.20
2022-08-17T10:24:02.973Z,31.40
2022-08-17T10:26:55.384Z,31.80
2022-08-17T10:29:46.246Z,32.90
2022-08-17T10:32:35.473Z,34.80
2022-08-17T10:35:34.134Z,35.30
2022-08-17T10:38:31.938Z,35.10
2022-08-17T10:41:31.113Z,35.60
2022-08-17T10:44:37.175Z,35.10
2022-08-17T10:47:05.869Z,33.10
2022-08-17T10:49:34.823Z,33.20
2022-08-17T10:52:25.107Z,31.70
2022-08-17T10:54:58.026Z,31.60
2022-08-17T10:57:34.253Z,32.30
2022-08-17T11:00:02.808Z,33.60
2022-08-17T11:02:42.291Z,34.60
2022-08-17T11:05:36.376Z,35.50
2022-08-17T11:08:57.613Z,35.80
2022-08-17T11:12:01.786Z,37.90
2022-08-17T11:14:35.023Z,37.60
2022-08-17T11:17:19.942Z,35.90
2022-08-17T11:19:53.630Z,34.50
2022-08-17T11:22:31.278Z,34.50
2022-08-17T11:25:12.857Z,35.50
2022-08-17T11:27:40.038Z,37.10
2022-08-17T11:30:35.076Z,38.30
2022-08-17T11:33:36.919Z,38.40
2022-08-17T11:36:33.090Z,36.40
2022-08-17T11:39:04.739Z,36.30
2022-08-17T11:41:37.871Z,36.50
2022-08-17T11:44:05.684Z,36.30
2022-08-17T11:46:54.445Z,37.60
2022-08-17T11:50:03.973Z,38.80
2022-08-17T11:52:45.977Z,39.10
2022-08-17T11:55:39.527Z,39.00
2022-08-17T11:58:30.570Z,37.00
2022-08-17T12:00:59.618Z,34.70
2022-08-17T12:03:33.457Z,33.90
2022-08-17T12:06:24.789Z,33.30
2022-08-17T12:09:19.761Z,34.70
2022-08-17T12:12:13.696Z,35.60
2022-08-17T12:17:41.299Z,37.20
2022-08-17T12:20:15.565Z,36.40
2022-08-17T12:22:53.541Z,36.60
2022-08-17T12:25:50.792Z,36.50
2022-08-17T12:28:28.003Z,36.70
2022-08-17T12:30:59.791Z,37.80
2022-08-17T12:33:28.883Z,35.90
2022-08-17T12:36:03.398Z,34.40
2022-08-17T12:38:34.699Z,34.50
2022-08-17T12:41:25.076Z,35.00
2022-08-17T12:44:03.915Z,34.50
2022-08-17T12:46:45.851Z,36.90
2022-08-17T12:49:26.617Z,37.20
2022-08-17T12:52:04.316Z,36.50
2022-08-17T12:54:53.873Z,34.70
2022-08-17T12:57:32.833Z,34.80
2022-08-17T13:00:08.508Z,35.80
2022-08-17T13:02:47.831Z,36.60
2022-08-17T13:05:27.811Z,37.20
2022-08-17T13:07:56.736Z,38.40
2022-08-17T13:10:32.114Z,39.30
2022-08-17T13:13:04.996Z,38.30
2022-08-17T13:15:51.017Z,39.10
2022-08-17T13:18:41.922Z,37.20
2022-08-17T13:21:19.913Z,34.70
2022-08-17T13:23:58.813Z,34.70
2022-08-17T13:26:38.058Z,36.00
2022-08-17T13:29:23.942Z,34.70
2022-08-17T13:32:16.437Z,34.10
2022-08-17T13:35:11.984Z,36.10
2022-08-17T13:37:42.537Z,36.60
2022-08-17T13:40:09.631Z,36.70
2022-08-17T13:42:52.600Z,35.60
2022-08-17T13:45:36.562Z,34.60
2022-08-17T13:48:13.761Z,34.70
2022-08-17T13:50:54.832Z,34.10
2022-08-17T13:53:21.781Z,33.90
2022-08-17T13:56:37.394Z,34.00
2022-08-17T13:59:52.503Z,34.20
2022-08-17T14:02:12.117Z,33.90
2022-08-17T14:04:40.948Z,35.30
2022-08-17T14:07:15.382Z,36.40
2022-08-17T14:09:54.625Z,35.00
2022-08-17T14:12:25.098Z,33.80
2022-08-17T14:14:54.957Z,32.60
2022-08-17T14:17:23.094Z,31.70
2022-08-17T14:19:51.134Z,31.10
2022-08-17T14:22:31.459Z,31.10
2022-08-17T14:24:59.991Z,31.20
2022-08-17T14:27:28.281Z,31.20
2022-08-17T14:29:56.458Z,30.50
2022-08-17T14:32:35.338Z,31.00
2022-08-17T14:35:03.815Z,32.60
2022-08-17T14:37:31.489Z,34.30
2022-08-17T14:40:02.135Z,35.80
2022-08-17T14:42:32.487Z,36.70
2022-08-17T14:44:59.942Z,36.80
2022-08-17T14:47:26.951Z,36.60
2022-08-17T14:49:53.883Z,36.80
2022-08-17T14:52:21.855Z,36.10
2022-08-17T14:54:52.789Z,35.40
2022-08-17T14:57:25.927Z,34.60
2022-08-17T15:00:01.231Z,33.20
2022-08-17T15:02:29.882Z,32.20
2022-08-17T15:05:02.827Z,31.90
2022-08-17T15:07:30.241Z,31.60
2022-08-17T15:09:58.794Z,31.40
2022-08-17T15:12:32.416Z,31.40
2022-08-17T15:15:01.119Z,31.20
2022-08-17T15:17:45.063Z,31.10
2022-08-17T15:20:24.785Z,30.70
2022-08-17T15:22:56.212Z,30.50
2022-08-17T15:25:28.028Z,30.30
2022-08-17T15:27:56.018Z,30.40
2022-08-17T15:30:23.670Z,30.40
2022-08-17T15:32:54.906Z,30.60
2022-08-17T15:35:27.416Z,30.60
2022-08-17T15:37:56.450Z,30.60
2022-08-17T15:40:23.584Z,30.60
2022-08-17T15:42:51.142Z,30.40
2022-08-17T15:45:24.953Z,30.20
2022-08-17T15:47:53.026Z,30.10
2022-08-17T15:50:20.226Z,30.10
2022-08-17T15:52:47.653Z,30.00
2022-08-17T15:55:15.456Z,30.10
2022-08-17T15:57:42.663Z,30.00
2022-08-17T16:00:10.427Z,29.80
2022-08-17T16:03:32.003Z,29.70
2022-08-17T16:05:31.229Z,29.50
2022-08-17T16:07:59.727Z,29.60
2022-08-17T16:10:34.965Z,29.70
2022-08-17T16:13:02.889Z,29.50
2022-08-17T16:15:31.627Z,29.10
2022-08-17T16:17:59.122Z,29.20
2022-08-17T16:20:26.187Z,29.20
2022-08-17T16:22:54.806Z,29.00
2022-08-17T16:25:52.441Z,28.90
2022-08-17T16:28:15.838Z,28.80
2022-08-17T16:30:43.085Z,28.70
2022-08-17T16:33:11.737Z,28.60
2022-08-17T16:35:41.978Z,28.70
2022-08-17T16:38:09.582Z,28.90
2022-08-17T16:40:38.084Z,28.90
2022-08-17T16:43:10.626Z,28.90
2022-08-17T16:45:40.558Z,28.90
2022-08-17T16:48:08.649Z,29.00
2022-08-17T16:50:36.360Z,29.00
2022-08-17T16:53:17.249Z,29.10
2022-08-17T16:55:45.914Z,29.20
2022-08-17T16:58:13.148Z,29.30
2022-08-17T17:00:42.279Z,29.40
2022-08-17T17:03:19.704Z,29.40
2022-08-17T17:05:59.095Z,29.50
2022-08-17T17:08:30.322Z,29.00
2022-08-17T17:10:59.829Z,29.10
2022-08-17T17:13:50.933Z,29.10
2022-08-17T17:16:24.026Z,29.10
2022-08-17T17:19:08.836Z,29.00
2022-08-17T17:21:57.539Z,28.80
2022-08-17T17:24:30.956Z,28.70
2022-08-17T17:27:12.871Z,28.60
2022-08-17T17:30:02.218Z,28.50
2022-08-17T17:32:56.163Z,28.50
2022-08-17T17:35:35.549Z,28.50
2022-08-17T17:38:11.070Z,28.40
2022-08-17T17:40:45.117Z,28.30
2022-08-17T17:43:37.570Z,28.30
2022-08-17T17:46:27.103Z,28.20
2022-08-17T17:48:57.216Z,28.20
2022-08-17T17:52:09.111Z,28.20
2022-08-17T17:54:53.265Z,28.20
2022-08-17T17:57:40.687Z,28.00
2022-08-17T18:00:18.638Z,28.00
2022-08-17T18:03:00.277Z,27.80
2022-08-17T18:05:55.061Z,27.80
2022-08-17T18:08:34.715Z,27.70
2022-08-17T18:11:24.129Z,27.70
2022-08-17T18:14:00.496Z,27.60
2022-08-17T18:16:29.733Z,27.50
2022-08-17T18:18:59.504Z,27.50
2022-08-17T18:21:38.472Z,27.40
2022-08-17T18:24:07.914Z,27.20
2022-08-17T18:26:35.212Z,27.10
2022-08-17T18:29:12.386Z,27.10
2022-08-17T18:31:39.255Z,26.90
2022-08-17T18:34:46.712Z,26.90
2022-08-17T18:37:29.955Z,26.80
2022-08-17T18:39:56.984Z,26.70
2022-08-17T18:42:29.108Z,26.60
2022-08-17T18:44:56.434Z,26.50
2022-08-17T18:47:26.363Z,26.50
2022-08-17T18:49:58.028Z,26.40
2022-08-17T18:52:33.126Z,26.20
2022-08-17T18:55:20.056Z,26.20
2022-08-17T18:57:59.650Z,26.10
2022-08-17T19:00:44.269Z,26.10
2022-08-17T19:03:18.053Z,26.10
2022-08-17T19:05:51.839Z,26.00
2022-08-17T19:08:30.644Z,26.00
2022-08-17T19:11:03.384Z,25.90
2022-08-17T19:13:40.854Z,25.80
2022-08-17T19:16:15.002Z,25.80
2022-08-17T19:18:52.620Z,25.70
2022-08-17T19:21:25.782Z,25.70
2022-08-17T19:24:22.354Z,25.60
2022-08-17T19:26:56.727Z,25.60
2022-08-17T19:29:46.138Z,25.60
2022-08-17T19:32:16.562Z,25.50
2022-08-17T19:34:44.782Z,25.50
2022-08-17T19:37:29.863Z,25.40
2022-08-17T19:40:35.118Z,25.40
2022-08-17T19:43:41.130Z,25.40
2022-08-17T19:46:18.892Z,25.30
2022-08-17T19:49:07.710Z,25.30
2022-08-17T19:51:45.835Z,25.20
2022-08-17T19:54:39.777Z,25.20
2022-08-17T19:57:16.274Z,25.10
2022-08-17T19:59:55.861Z,25.00
2022-08-17T20:02:51.748Z,24.90
2022-08-17T20:05:37.288Z,24.90
2022-08-17T20:08:20.838Z,24.90
2022-08-17T20:10:55.642Z,24.80
2022-08-17T20:13:34.056Z,24.80
2022-08-17T20:16:03.417Z,24.70
2022-08-17T20:18:47.443Z,24.70
2022-08-17T20:21:39.900Z,24.70
2022-08-17T20:24:31.100Z,24.60
2022-08-17T20:27:09.377Z,24.60
2022-08-17T20:29:59.743Z,24.60
2022-08-17T20:32:29.547Z,24.60
2022-08-17T20:35:30.605Z,24.50
2022-08-17T20:38:59.024Z,24.40
2022-08-17T20:41:30.608Z,24.30
2022-08-17T20:43:57.479Z,24.30
2022-08-17T20:46:32.251Z,24.30
2022-08-17T20:49:40.103Z,24.30
2022-08-17T20:52:10.571Z,24.20
2022-08-17T20:54:57.368Z,24.10
2022-08-17T20:57:32.965Z,24.10
2022-08-17T21:00:45.211Z,24.00
2022-08-17T21:03:23.797Z,24.00
2022-08-17T21:06:16.906Z,23.90
2022-08-17T21:09:13.144Z,23.70
2022-08-17T21:12:02.536Z,23.60
2022-08-17T21:15:04.088Z,23.50
2022-08-17T21:17:54.898Z,23.50
2022-08-17T21:20:32.227Z,23.50
2022-08-17T21:23:22.717Z,23.50
2022-08-17T21:26:04.617Z,23.50
2022-08-17T21:29:00.407Z,23.50
2022-08-17T21:31:41.369Z,23.50
2022-08-17T21:34:16.643Z,23.50
2022-08-17T21:36:45.114Z,23.50
2022-08-17T21:39:14.844Z,23.50
2022-08-17T21:41:52.855Z,23.40
2022-08-17T21:44:21.694Z,23.30
2022-08-17T21:46:51.611Z,23.30
2022-08-17T21:49:25.853Z,23.30
2022-08-17T21:51:55.377Z,23.30
2022-08-17T21:54:34.704Z,23.30
2022-08-17T21:57:05.749Z,23.30
2022-08-17T21:59:37.496Z,23.30
2022-08-17T22:02:16.958Z,23.30
2022-08-17T22:04:55.132Z,23.30
2022-08-17T22:07:44.403Z,23.30
2022-08-17T22:10:44.616Z,23.20
2022-08-17T22:13:17.750Z,23.10
2022-08-17T22:15:51.421Z,23.00
2022-08-17T22:18:27.745Z,23.00
2022-08-17T22:21:01.944Z,22.90
2022-08-17T22:23:56.351Z,22.90
2022-08-17T22:26:25.716Z,22.90
2022-08-17T22:28:56.727Z,22.80
2022-08-17T22:31:29.526Z,22.70
2022-08-17T22:34:02.201Z,22.60
2022-08-17T22:36:31.537Z,22.60
2022-08-17T22:39:18.372Z,22.50
2022-08-17T22:41:48.419Z,22.40
2022-08-17T22:44:23.181Z,22.30
2022-08-17T22:46:53.163Z,22.40
2022-08-17T22:49:38.645Z,22.30
2022-08-17T22:52:36.088Z,22.30
2022-08-17T22:55:30.133Z,22.30
2022-08-17T22:58:16.216Z,22.20
2022-08-17T23:00:46.056Z,22.10
2022-08-17T23:03:18.050Z,22.10
2022-08-17T23:05:48.380Z,22.00
2022-08-17T23:08:21.386Z,22.10
2022-08-17T23:10:49.041Z,22.10
2022-08-17T23:13:16.774Z,22.00
2022-08-17T23:15:44.642Z,22.00
2022-08-17T23:18:11.661Z,21.80
2022-08-17T23:20:41.033Z,21.70
2022-08-17T23:23:09.216Z,21.70
2022-08-17T23:25:36.364Z,21.70
2022-08-17T23:28:06.122Z,21.70
2022-08-17T23:30:36.849Z,21.70
2022-08-17T23:33:08.850Z,21.60
2022-08-17T23:35:40.148Z,21.50
2022-08-17T23:38:09.639Z,21.50
2022-08-17T23:40:39.754Z,21.40
2022-08-17T23:45:57.546Z,21.40
2022-08-17T23:48:28.674Z,21.30
2022-08-17T23:51:19.066Z,21.20
2022-08-17T23:53:50.473Z,21.20
2022-08-17T23:56:23.842Z,21.20
2022-08-17T23:58:51.444Z,21.10
